Don's Testing Zone


Current Conditions
weather data
source:

National Weather Service
Clear Searcy, AR
Clear, 70°F
Thursday, June 29, 2017 1:56 AM CDT
Temperature: 70°F/21°C
Humidity: 100%
Barometer: 29.96in/1014.6mb Barometer Steady
Wind: CALM at 0mph/0kmh
View other cities:
Searcy | Little Rock | Hot Springs | Russellville | More...
Astronomical Conditions (Clear Sky Clock)
Searcy Clear Sky Clock
    

Radar Images

NWS
    Wx Underground

NWS METAR weather data

ADDS - METARS form results





Aviation Digital Data Service (ADDS) Output produced by METARs form (0707 UTC 29 June 2017) found at http://www.aviationweather.gov/adds/metars/ 

KSRC 290656Z AUTO 00000KT 10SM CLR 21/21 A2996 RMK AO2 SLP146 T02060206

KSRC 290556Z AUTO 00000KT 10SM CLR 22/21 A2996 RMK AO2 SLP146 6//// T0217021110294 20211 50002

KSRC 290456Z AUTO 00000KT 10SM CLR 22/21 A2997 RMK AO2 SLP149 T02170211403170183

KSRC 290356Z AUTO 00000KT 10SM CLR 23/22 A2996 RMK AO2 SLP147 T02330217

KSRC 290156Z AUTO 17004KT 10SM CLR 26/21 A2995 RMK AO2 SLP142 T02560211

KSRC 290056Z AUTO 16006KT 10SM CLR 27/21 A2994 RMK AO2 SLP139 T02720206

KSRC 282356Z AUTO 10SM CLR 29/21 A2994 RMK AO2 SLP140 6//// T02940206 1031720294 56014

KSRC 282256Z AUTO 10SM SCT045 31/21 A2995 RMK AO2 SLP143 T03060211

KSRC 282156Z AUTO 19008KT 10SM FEW047 31/22 A2997 RMK AO2 SLP150 T03110217

KSRC 282056Z AUTO 15011KT 10SM SCT047 32/21 A2998 RMK AO2 SLP154 6//// T0317021156018

KSRC 281956Z AUTO 17011KT 10SM FEW048 31/21 A3000 RMK AO2 SLP159 T03060206

KSRC 281856Z AUTO 18011KT 10SM CLR 30/20 A3002 RMK AO2 SLP166 T03000200

KSRC 281756Z AUTO 18009G15KT 10SM CLR 30/21 A3004 RMK AO2 SLP172 6//// T0300020610306 20200 56009

KSRC 281656Z AUTO 21008KT 10SM FEW033 29/21 A3005 RMK AO2 SLP177 T02890206

KSRC 281556Z AUTO 18008KT 10SM SCT055 29/22 A3005 RMK AO2 SLP177 T02890217

KSRC 281456Z AUTO 19007KT 10SM OVC050 26/21 A3006 RMK AO2 SLP182 6//// T0261021150006

KSRC 281356Z AUTO 16007KT 10SM CLR 25/21 A3007 RMK AO2 SLP183 T02500211

KSRC 281256Z AUTO 00000KT 10SM CLR 23/21 A3006 RMK AO2 SLP180 T02330206

KSRC 281156Z AUTO 00000KT 10SM CLR 20/19 A3005 RMK AO2 SLP177 6//// 7////T02000194 10206 20183 50010

KSRC 281056Z AUTO 00000KT 10SM BKN060 19/19 A3005 RMK AO2 SLP177 T01890189

KSRC 280956Z AUTO 00000KT 10SM BKN060 18/18 A3003 RMK AO2 SLP172 T01830183

KSRC 280856Z AUTO 00000KT 10SM CLR 18/18 A3002 RMK AO2 SLP166 T01830183 58010

KSRC 280756Z AUTO 00000KT 10SM CLR 19/19 A3004 RMK AO2 SLP174 T01890189